createdAt,value
2018-12-14T00:02:03.485Z,15.28
2018-12-14T00:04:31.526Z,20.70
2018-12-14T00:06:59.054Z,22.67
2018-12-14T00:09:27.065Z,14.47
2018-12-14T00:11:54.663Z,22.77
2018-12-14T00:14:22.079Z,17.20
2018-12-14T00:16:49.618Z,17.95
2018-12-14T00:19:17.017Z,16.40
2018-12-14T00:21:45.126Z,17.12
2018-12-14T00:24:12.503Z,16.73
2018-12-14T00:26:40.167Z,17.55
2018-12-14T00:29:07.913Z,16.40
2018-12-14T00:31:35.422Z,15.90
2018-12-14T00:34:02.937Z,17.93
2018-12-14T00:36:30.374Z,21.23
2018-12-14T00:38:57.746Z,16.20
2018-12-14T00:41:25.139Z,17.70
2018-12-14T00:43:53.715Z,16.32
2018-12-14T00:46:21.373Z,18.73
2018-12-14T00:48:48.843Z,15.95
2018-12-14T00:51:16.862Z,20.02
2018-12-14T00:53:44.443Z,14.35
2018-12-14T00:56:13.679Z,16.05
2018-12-14T00:58:44.308Z,18.65
2018-12-14T01:01:11.798Z,18.98
2018-12-14T01:03:40.158Z,19.60
2018-12-14T01:06:07.580Z,20.92
2018-12-14T01:08:35.132Z,18.35
2018-12-14T01:11:02.645Z,17.50
2018-12-14T01:13:31.250Z,19.30
2018-12-14T01:15:58.953Z,18.48
2018-12-14T01:18:27.371Z,18.35
2018-12-14T01:20:55.931Z,19.52
2018-12-14T01:23:23.678Z,16.25
2018-12-14T01:25:51.130Z,16.42
2018-12-14T01:28:18.601Z,18.55
2018-12-14T01:30:47.178Z,12.10
2018-12-14T01:33:15.434Z,15.38
2018-12-14T01:35:42.934Z,16.67
2018-12-14T01:38:11.063Z,19.70
2018-12-14T01:40:38.770Z,17.02
2018-12-14T01:43:06.392Z,18.02
2018-12-14T01:45:35.909Z,17.70
2018-12-14T01:48:05.722Z,17.57
2018-12-14T01:50:33.217Z,14.58
2018-12-14T01:53:00.653Z,15.32
2018-12-14T01:55:28.838Z,14.68
2018-12-14T01:57:56.382Z,15.70
2018-12-14T02:00:24.830Z,14.30
2018-12-14T02:02:54.138Z,16.65
2018-12-14T02:05:21.650Z,16.40
2018-12-14T02:07:49.126Z,14.90
2018-12-14T02:10:17.446Z,17.33
2018-12-14T02:12:44.902Z,19.35
2018-12-14T02:15:12.277Z,18.12
2018-12-14T02:17:40.422Z,14.73
2018-12-14T02:20:08.001Z,18.10
2018-12-14T02:22:35.659Z,14.13
2018-12-14T02:25:03.711Z,20.12
2018-12-14T02:27:31.218Z,20.23
2018-12-14T02:30:03.298Z,16.62
2018-12-14T02:32:30.742Z,17.27
2018-12-14T02:34:59.268Z,17.05
2018-12-14T02:37:26.786Z,19.67
2018-12-14T02:39:54.291Z,17.07
2018-12-14T02:42:21.695Z,20.75
2018-12-14T02:44:49.303Z,17.65
2018-12-14T02:47:16.835Z,18.10
2018-12-14T02:49:44.335Z,17.60
2018-12-14T02:52:13.029Z,23.47
2018-12-14T02:54:40.495Z,15.28
2018-12-14T02:57:08.140Z,12.98
2018-12-14T02:59:35.632Z,15.95
2018-12-14T03:02:03.766Z,16.77
2018-12-14T03:04:31.326Z,13.72
2018-12-14T03:06:58.900Z,15.08
2018-12-14T03:09:26.250Z,13.55
2018-12-14T03:11:54.561Z,14.98
2018-12-14T03:14:22.283Z,16.32
2018-12-14T03:16:50.291Z,13.85
2018-12-14T03:19:17.830Z,13.00
2018-12-14T03:21:46.937Z,12.33
2018-12-14T03:24:14.333Z,18.62
2018-12-14T03:26:42.421Z,13.10
2018-12-14T03:29:09.866Z,12.82
2018-12-14T03:31:37.387Z,13.00
2018-12-14T03:34:05.188Z,10.80
2018-12-14T03:36:33.787Z,14.33
2018-12-14T03:39:01.304Z,12.10
2018-12-14T03:41:30.624Z,13.35
2018-12-14T03:44:01.951Z,13.85
2018-12-14T03:46:30.372Z,12.00
2018-12-14T03:48:57.964Z,12.10
2018-12-14T03:51:30.308Z,12.60
2018-12-14T03:53:58.375Z,13.30
2018-12-14T03:56:27.399Z,12.80
2018-12-14T03:58:55.332Z,12.53
2018-12-14T04:01:22.901Z,13.43
2018-12-14T04:03:51.632Z,12.13
2018-12-14T04:06:20.380Z,14.75
2018-12-14T04:08:47.814Z,16.87
2018-12-14T04:11:15.263Z,12.10
2018-12-14T04:13:43.403Z,15.15
2018-12-14T04:16:11.007Z,14.25
2018-12-14T04:18:38.381Z,9.93
2018-12-14T04:21:05.811Z,12.95
2018-12-14T04:23:34.389Z,18.00
2018-12-14T04:26:01.988Z,17.17
2018-12-14T04:28:29.571Z,15.48
2018-12-14T04:30:58.743Z,13.38
2018-12-14T04:33:26.686Z,16.27
2018-12-14T04:35:58.956Z,14.58
2018-12-14T04:38:30.284Z,13.55
2018-12-14T04:41:00.697Z,12.50
2018-12-14T04:43:28.880Z,14.85
2018-12-14T04:45:56.351Z,12.03
2018-12-14T04:48:28.668Z,15.55
2018-12-14T04:50:56.166Z,22.10
2018-12-14T04:53:25.346Z,19.92
2018-12-14T04:55:54.330Z,15.63
2018-12-14T04:58:25.704Z,15.23
2018-12-14T05:00:53.116Z,13.75
2018-12-14T05:03:20.653Z,16.45
2018-12-14T05:05:48.188Z,15.18
2018-12-14T05:08:16.034Z,19.62
2018-12-14T05:10:43.465Z,15.10
2018-12-14T05:13:12.122Z,20.32
2018-12-14T05:15:39.704Z,15.80
2018-12-14T05:18:07.234Z,19.17
2018-12-14T05:20:34.627Z,21.37
2018-12-14T05:23:02.214Z,18.32
2018-12-14T05:25:30.240Z,15.93
2018-12-14T05:27:57.779Z,13.68
2018-12-14T05:30:25.875Z,17.10
2018-12-14T05:32:53.413Z,16.48
2018-12-14T05:35:20.933Z,15.95
2018-12-14T05:37:49.018Z,17.52
2018-12-14T05:40:16.381Z,17.67
2018-12-14T05:42:44.893Z,17.07
2018-12-14T05:45:12.644Z,15.23
2018-12-14T05:47:40.189Z,16.87
2018-12-14T05:50:08.227Z,15.48
2018-12-14T05:52:35.765Z,17.52
2018-12-14T05:55:04.370Z,17.48
2018-12-14T05:57:32.653Z,16.50
2018-12-14T06:00:04.320Z,19.70
2018-12-14T06:02:34.442Z,16.12
2018-12-14T06:05:02.432Z,32.45
2018-12-14T06:07:29.865Z,23.75
2018-12-14T06:09:57.870Z,27.17
2018-12-14T06:12:25.440Z,25.48
2018-12-14T06:14:54.861Z,22.93
2018-12-14T06:17:23.820Z,27.52
2018-12-14T06:19:51.369Z,17.55
2018-12-14T06:22:22.094Z,17.87
2018-12-14T06:24:49.654Z,15.65
2018-12-14T06:27:17.196Z,17.07
2018-12-14T06:29:44.790Z,16.70
2018-12-14T06:32:12.552Z,21.20
2018-12-14T06:34:40.412Z,18.52
2018-12-14T06:37:08.441Z,18.00
2018-12-14T06:39:36.102Z,21.15
2018-12-14T06:42:04.234Z,20.20
2018-12-14T06:44:33.569Z,18.15
2018-12-14T06:47:02.061Z,20.60
2018-12-14T06:49:29.743Z,17.73
2018-12-14T06:51:57.723Z,16.65
2018-12-14T06:54:25.216Z,17.25
2018-12-14T06:56:53.430Z,17.12
2018-12-14T06:59:21.875Z,16.23
2018-12-14T07:01:50.334Z,18.35
2018-12-14T07:04:17.962Z,19.48
2018-12-14T07:06:45.560Z,14.63
2018-12-14T07:09:16.622Z,27.40
2018-12-14T07:11:45.933Z,17.60
2018-12-14T07:14:16.911Z,18.92
2018-12-14T07:16:44.405Z,18.77
2018-12-14T07:19:11.881Z,16.05
2018-12-14T07:21:39.437Z,16.87
2018-12-14T07:24:06.992Z,17.10
2018-12-14T07:26:34.455Z,15.68
2018-12-14T07:29:03.182Z,23.77
2018-12-14T07:31:31.038Z,21.10
2018-12-14T07:33:58.628Z,15.95
2018-12-14T07:36:26.222Z,17.20
2018-12-14T07:38:53.673Z,19.62
2018-12-14T07:41:21.441Z,20.23
2018-12-14T07:43:48.820Z,20.15
2018-12-14T07:46:16.694Z,22.80
2018-12-14T07:48:44.071Z,22.62
2018-12-14T07:51:12.245Z,18.73
2018-12-14T07:53:40.273Z,19.62
2018-12-14T07:56:07.725Z,16.97
2018-12-14T07:58:36.850Z,21.65
2018-12-14T08:01:04.454Z,26.70
2018-12-14T08:03:32.027Z,20.23
2018-12-14T08:05:59.593Z,16.27
2018-12-14T08:08:27.297Z,17.62
2018-12-14T08:10:55.120Z,20.62
2018-12-14T08:13:23.158Z,18.65
2018-12-14T08:15:50.608Z,21.68
2018-12-14T08:19:45.901Z,25.92
2018-12-14T08:22:13.383Z,18.05
2018-12-14T08:24:40.872Z,18.27
2018-12-14T08:27:08.360Z,17.92
2018-12-14T08:29:35.804Z,22.70
2018-12-14T08:32:03.327Z,20.05
2018-12-14T08:34:31.995Z,27.40
2018-12-14T08:36:59.721Z,29.18
2018-12-14T08:39:28.001Z,30.72
2018-12-14T08:41:55.584Z,17.77
2018-12-14T08:44:23.504Z,23.00
2018-12-14T08:46:55.857Z,22.55
2018-12-14T08:49:24.566Z,21.77
2018-12-14T08:51:52.552Z,17.82
2018-12-14T08:54:20.134Z,18.95
2018-12-14T08:56:48.010Z,27.20
2018-12-14T08:59:17.142Z,16.27
2018-12-14T09:01:44.537Z,20.90
2018-12-14T09:04:14.904Z,22.90
2018-12-14T09:06:42.563Z,18.55
2018-12-14T09:09:11.397Z,24.47
2018-12-14T09:11:40.622Z,24.37
2018-12-14T09:14:08.145Z,21.35
2018-12-14T09:16:35.739Z,19.62
2018-12-14T09:19:03.255Z,23.62
2018-12-14T09:21:30.992Z,21.77
2018-12-14T09:23:58.384Z,22.25
2018-12-14T09:26:26.043Z,19.45
2018-12-14T09:28:54.128Z,20.72
2018-12-14T09:31:22.047Z,19.73
2018-12-14T09:33:49.445Z,18.90
2018-12-14T09:36:17.057Z,17.05
2018-12-14T09:38:44.580Z,21.30
2018-12-14T09:41:16.208Z,22.67
2018-12-14T09:43:41.484Z,19.48
2018-12-14T09:46:08.954Z,15.35
2018-12-14T09:48:36.456Z,19.75
2018-12-14T09:51:03.945Z,23.98
2018-12-14T09:53:32.342Z,21.12
2018-12-14T09:56:00.106Z,27.65
2018-12-14T09:58:27.666Z,30.97
2018-12-14T10:00:55.155Z,25.37
2018-12-14T10:03:22.764Z,23.77
2018-12-14T10:05:50.592Z,20.85
2018-12-14T10:08:18.353Z,20.08
2018-12-14T10:10:46.303Z,20.20
2018-12-14T10:13:14.325Z,24.07
2018-12-14T10:15:41.823Z,22.37
2018-12-14T10:18:09.270Z,18.82
2018-12-14T10:20:36.799Z,24.07
2018-12-14T10:23:05.446Z,22.30
2018-12-14T10:25:34.395Z,19.15
2018-12-14T10:28:01.868Z,28.55
2018-12-14T10:30:30.387Z,21.12
2018-12-14T10:32:58.003Z,26.77
2018-12-14T10:35:25.883Z,20.08
2018-12-14T10:37:53.341Z,26.37
2018-12-14T10:40:20.797Z,30.68
2018-12-14T10:42:48.280Z,19.48
2018-12-14T10:45:16.649Z,28.45
2018-12-14T10:47:44.282Z,22.45
2018-12-14T10:50:12.710Z,24.70
2018-12-14T10:52:42.995Z,26.25
2018-12-14T10:55:10.430Z,23.90
2018-12-14T10:57:40.426Z,20.82
2018-12-14T11:00:17.558Z,30.97
2018-12-14T11:02:48.692Z,23.12
2018-12-14T11:05:16.461Z,16.70
2018-12-14T11:07:44.058Z,19.87
2018-12-14T11:10:11.681Z,28.95
2018-12-14T11:12:39.161Z,20.02
2018-12-14T11:15:06.981Z,20.10
2018-12-14T11:17:36.255Z,20.82
2018-12-14T11:20:05.011Z,23.67
2018-12-14T11:22:32.521Z,19.02
2018-12-14T11:24:59.905Z,23.22
2018-12-14T11:27:32.550Z,18.92
2018-12-14T11:30:00.600Z,21.80
2018-12-14T11:32:28.019Z,22.07
2018-12-14T11:34:56.159Z,21.75
2018-12-14T11:37:23.767Z,17.75
2018-12-14T11:39:52.050Z,16.60
2018-12-14T11:42:19.572Z,25.20
2018-12-14T11:44:47.138Z,23.18
2018-12-14T11:47:18.151Z,21.12
2018-12-14T11:49:44.414Z,15.23
2018-12-14T11:52:11.975Z,22.35
2018-12-14T11:54:40.202Z,17.32
2018-12-14T11:57:07.760Z,26.45
2018-12-14T11:59:35.681Z,18.45
2018-12-14T12:02:03.204Z,22.80
2018-12-14T12:04:30.640Z,19.87
2018-12-14T12:06:58.043Z,17.87
2018-12-14T12:09:25.517Z,24.80
2018-12-14T12:11:53.162Z,20.20
2018-12-14T12:14:26.904Z,25.02
2018-12-14T12:16:53.360Z,21.97
2018-12-14T12:19:20.918Z,21.25
2018-12-14T12:21:53.359Z,20.55
2018-12-14T12:24:22.094Z,24.82
2018-12-14T12:26:54.480Z,26.55
2018-12-14T12:29:22.025Z,23.67
2018-12-14T12:31:51.330Z,29.98
2018-12-14T12:34:18.831Z,23.02
2018-12-14T12:36:46.302Z,26.68
2018-12-14T12:39:13.786Z,29.63
2018-12-14T12:41:41.229Z,29.12
2018-12-14T12:44:08.729Z,29.32
2018-12-14T12:46:36.340Z,27.87
2018-12-14T12:49:03.801Z,23.57
2018-12-14T12:51:31.398Z,26.12
2018-12-14T12:53:59.679Z,31.68
2018-12-14T12:56:27.625Z,28.87
2018-12-14T12:58:55.357Z,24.15
2018-12-14T13:01:22.847Z,23.65
2018-12-14T13:03:51.173Z,17.30
2018-12-14T13:06:19.377Z,17.90
2018-12-14T13:08:46.910Z,23.70
2018-12-14T13:11:15.559Z,26.23
2018-12-14T13:13:45.452Z,16.90
2018-12-14T13:16:13.007Z,22.93
2018-12-14T13:18:40.511Z,19.32
2018-12-14T13:21:15.103Z,19.35
2018-12-14T13:23:42.620Z,22.73
2018-12-14T13:26:10.230Z,18.85
2018-12-14T13:28:37.932Z,22.40
2018-12-14T13:31:05.515Z,20.25
2018-12-14T13:33:33.082Z,19.23
2018-12-14T13:36:00.536Z,14.50
2018-12-14T13:38:27.965Z,18.20
2018-12-14T13:40:56.900Z,19.50
2018-12-14T13:43:24.854Z,25.70
2018-12-14T13:45:53.137Z,19.05
2018-12-14T13:48:20.869Z,18.90
2018-12-14T13:50:49.008Z,22.05
2018-12-14T13:53:19.053Z,19.45
2018-12-14T13:55:46.655Z,20.45
2018-12-14T13:58:14.551Z,25.75
2018-12-14T14:00:42.171Z,30.48
2018-12-14T14:03:10.371Z,26.65
2018-12-14T14:05:39.110Z,27.17
2018-12-14T14:08:07.787Z,26.35
2018-12-14T14:10:35.359Z,23.00
2018-12-14T14:13:04.542Z,21.65
2018-12-14T14:15:32.091Z,17.25
2018-12-14T14:17:59.592Z,18.25
2018-12-14T14:20:28.736Z,26.45
2018-12-14T14:22:57.227Z,22.42
2018-12-14T14:25:25.311Z,21.57
2018-12-14T14:27:53.407Z,22.32
2018-12-14T14:30:20.857Z,25.68
2018-12-14T14:32:48.502Z,35.25
2018-12-14T14:35:16.215Z,18.55
2018-12-14T14:37:44.308Z,23.60
2018-12-14T14:40:12.691Z,23.65
2018-12-14T14:42:40.248Z,23.90
2018-12-14T14:45:07.910Z,32.85
2018-12-14T14:47:35.371Z,24.55
2018-12-14T14:50:03.245Z,25.43
2018-12-14T14:52:30.738Z,32.42
2018-12-14T14:54:58.388Z,22.13
2018-12-14T14:57:26.009Z,25.02
2018-12-14T14:59:53.515Z,25.77
2018-12-14T15:02:20.970Z,21.02
2018-12-14T15:04:48.518Z,21.35
2018-12-14T15:07:21.271Z,19.52
2018-12-14T15:09:48.780Z,20.97
2018-12-14T15:12:16.286Z,22.30
2018-12-14T15:14:44.725Z,23.55
2018-12-14T15:17:12.490Z,24.27
2018-12-14T15:19:40.152Z,27.00
2018-12-14T15:22:07.788Z,25.32
2018-12-14T15:24:35.343Z,22.58
2018-12-14T15:27:02.828Z,26.42
2018-12-14T15:29:30.428Z,21.50
2018-12-14T15:31:58.270Z,18.80
2018-12-14T15:34:25.848Z,20.95
2018-12-14T15:36:53.320Z,24.35
2018-12-14T15:39:20.941Z,24.32
2018-12-14T15:41:48.640Z,32.93
2018-12-14T15:44:16.911Z,28.52
2018-12-14T15:46:45.024Z,29.87
2018-12-14T15:49:12.454Z,24.67
2018-12-14T15:51:40.112Z,28.92
2018-12-14T15:54:07.704Z,18.92
2018-12-14T15:56:35.334Z,19.77
2018-12-14T15:59:02.989Z,20.85
2018-12-14T16:01:30.563Z,24.07
2018-12-14T16:03:58.149Z,20.10
2018-12-14T16:06:25.576Z,16.67
2018-12-14T16:08:53.154Z,16.82
2018-12-14T16:11:21.556Z,18.27
2018-12-14T16:13:49.109Z,19.10
2018-12-14T16:16:16.568Z,17.45
2018-12-14T16:18:44.647Z,20.97
2018-12-14T16:21:12.285Z,23.42
2018-12-14T16:23:40.504Z,24.82
2018-12-14T16:26:08.111Z,22.10
2018-12-14T16:28:35.713Z,19.62
2018-12-14T16:31:03.441Z,20.43
2018-12-14T16:33:31.147Z,19.73
2018-12-14T16:35:59.741Z,20.57
2018-12-14T16:38:27.296Z,20.23
2018-12-14T16:40:54.827Z,21.00
2018-12-14T16:43:23.506Z,19.10
2018-12-14T16:45:51.047Z,20.02
2018-12-14T16:48:18.547Z,22.90
2018-12-14T16:50:46.045Z,21.35
2018-12-14T16:53:13.864Z,18.65
2018-12-14T16:55:41.380Z,17.77
2018-12-14T16:58:08.932Z,20.57
2018-12-14T17:00:36.535Z,17.40
2018-12-14T17:03:04.168Z,20.35
2018-12-14T17:05:31.751Z,25.40
2018-12-14T17:07:59.536Z,23.50
2018-12-14T17:10:27.247Z,26.65
2018-12-14T17:12:54.963Z,18.32
2018-12-14T17:15:22.482Z,21.23
2018-12-14T17:17:51.070Z,24.52
2018-12-14T17:20:18.769Z,23.75
2018-12-14T17:22:46.253Z,18.35
2018-12-14T17:25:13.871Z,17.20
2018-12-14T17:27:42.140Z,21.80
2018-12-14T17:30:09.995Z,21.80
2018-12-14T17:32:37.683Z,18.70
2018-12-14T17:35:06.710Z,25.45
2018-12-14T17:37:34.378Z,24.35
2018-12-14T17:40:02.063Z,23.62
2018-12-14T17:42:29.805Z,30.20
2018-12-14T17:44:57.937Z,17.02
2018-12-14T17:47:25.533Z,22.93
2018-12-14T17:49:53.039Z,17.10
2018-12-14T17:52:21.428Z,18.52
2018-12-14T17:54:49.370Z,25.25
2018-12-14T17:57:17.119Z,18.87
2018-12-14T17:59:44.821Z,22.37
2018-12-14T18:02:13.017Z,20.52
2018-12-14T18:04:40.543Z,19.05
2018-12-14T18:07:08.093Z,23.77
2018-12-14T18:09:36.088Z,20.17
2018-12-14T18:12:03.745Z,27.48
2018-12-14T18:14:31.992Z,25.10
2018-12-14T18:16:59.480Z,21.57
2018-12-14T18:19:26.938Z,26.15
2018-12-14T18:21:54.736Z,20.52
2018-12-14T18:24:22.170Z,27.40
2018-12-14T18:26:49.841Z,26.37
2018-12-14T18:29:20.460Z,28.47
2018-12-14T18:31:50.839Z,20.43
2018-12-14T18:34:18.423Z,23.32
2018-12-14T18:36:48.187Z,25.80
2018-12-14T18:39:15.631Z,28.10
2018-12-14T18:41:45.058Z,24.25
2018-12-14T18:44:12.534Z,28.25
2018-12-14T18:46:42.403Z,20.17
2018-12-14T18:49:11.352Z,21.40
2018-12-14T18:51:38.821Z,19.77
2018-12-14T18:54:06.587Z,25.97
2018-12-14T18:56:34.729Z,26.15
2018-12-14T18:59:02.339Z,20.92
2018-12-14T19:01:31.747Z,24.27
2018-12-14T19:03:59.219Z,28.85
2018-12-14T19:06:26.812Z,23.00
2018-12-14T19:08:55.040Z,22.85
2018-12-14T19:11:23.033Z,23.10
2018-12-14T19:13:50.787Z,25.08
2018-12-14T19:16:18.214Z,25.00
2018-12-14T19:18:45.710Z,29.00
2018-12-14T19:21:13.936Z,25.12
2018-12-14T19:23:42.102Z,19.80
2018-12-14T19:26:10.974Z,25.02
2018-12-14T19:28:38.508Z,24.47
2018-12-14T19:31:07.929Z,23.80
2018-12-14T19:33:36.007Z,27.13
2018-12-14T19:36:03.594Z,20.80
2018-12-14T19:38:31.302Z,22.37
2018-12-14T19:41:00.025Z,20.57
2018-12-14T19:43:27.689Z,21.60
2018-12-14T19:45:55.413Z,20.68
2018-12-14T19:48:23.099Z,21.95
2018-12-14T19:50:50.740Z,28.77
2018-12-14T19:53:19.852Z,22.00
2018-12-14T19:55:47.416Z,21.60
2018-12-14T19:58:15.131Z,24.02
2018-12-14T20:00:43.113Z,23.35
2018-12-14T20:03:11.238Z,21.52
2018-12-14T20:05:38.995Z,28.25
2018-12-14T20:08:06.767Z,24.63
2018-12-14T20:10:34.402Z,23.60
2018-12-14T20:13:07.329Z,20.43
2018-12-14T20:15:34.892Z,22.85
2018-12-14T20:18:02.906Z,25.82
2018-12-14T20:20:30.365Z,29.40
2018-12-14T20:22:58.091Z,18.02
2018-12-14T20:25:25.751Z,22.65
2018-12-14T20:27:53.324Z,23.73
2018-12-14T20:30:20.930Z,29.90
2018-12-14T20:32:48.520Z,34.85
2018-12-14T20:35:16.382Z,21.95
2018-12-14T20:37:45.219Z,17.55
2018-12-14T20:40:12.959Z,20.35
2018-12-14T20:42:40.640Z,21.60
2018-12-14T20:45:08.570Z,22.90
2018-12-14T20:47:36.314Z,22.50
2018-12-14T20:50:03.861Z,17.90
2018-12-14T20:52:36.473Z,34.03
2018-12-14T20:55:08.999Z,30.70
2018-12-14T20:57:36.659Z,24.55
2018-12-14T21:00:05.633Z,22.80
2018-12-14T21:02:34.233Z,23.27
2018-12-14T21:05:02.502Z,23.85
2018-12-14T21:07:37.342Z,26.20
2018-12-14T21:10:05.800Z,23.55
2018-12-14T21:12:33.520Z,21.42
2018-12-14T21:15:07.829Z,26.20
2018-12-14T21:20:32.280Z,25.32
2018-12-14T21:23:01.047Z,27.22
2018-12-14T21:25:28.752Z,31.57
2018-12-14T21:27:59.712Z,25.30
2018-12-14T21:30:27.152Z,26.93
2018-12-14T21:32:54.705Z,35.35
2018-12-14T21:35:22.386Z,25.90
2018-12-14T21:37:50.093Z,25.25
2018-12-14T21:40:18.269Z,25.70
2018-12-14T21:42:45.722Z,21.35
2018-12-14T21:45:13.375Z,24.02
2018-12-14T21:47:40.831Z,21.70
2018-12-14T21:50:08.458Z,32.70
2018-12-14T21:52:37.166Z,23.65
2018-12-14T21:55:06.959Z,25.90
2018-12-14T21:57:34.518Z,29.90
2018-12-14T22:00:02.102Z,24.18
2018-12-14T22:02:30.760Z,32.53
2018-12-14T22:05:06.310Z,24.85
2018-12-14T22:07:33.898Z,26.27
2018-12-14T22:10:01.429Z,29.00
2018-12-14T22:12:31.019Z,26.62
2018-12-14T22:15:01.323Z,25.02
2018-12-14T22:17:34.889Z,23.90
2018-12-14T22:20:02.565Z,23.90
2018-12-14T22:22:31.423Z,27.22
2018-12-14T22:25:01.559Z,25.08
2018-12-14T22:27:29.709Z,24.05
2018-12-14T22:29:59.033Z,32.83
2018-12-14T22:32:27.718Z,28.60
2018-12-14T22:34:56.173Z,34.95
2018-12-14T22:37:23.650Z,32.78
2018-12-14T22:39:53.142Z,40.50
2018-12-14T22:42:22.135Z,52.17
2018-12-14T22:44:49.697Z,32.42
2018-12-14T22:47:18.748Z,31.45
2018-12-14T22:49:46.293Z,31.77
2018-12-14T22:52:13.835Z,35.90
2018-12-14T22:54:41.411Z,25.30
2018-12-14T22:57:08.903Z,22.42
2018-12-14T22:59:36.364Z,34.70
2018-12-14T23:02:03.949Z,24.67
2018-12-14T23:04:31.623Z,19.12
2018-12-14T23:06:59.115Z,23.15
2018-12-14T23:09:26.812Z,23.80
2018-12-14T23:11:54.467Z,17.98
2018-12-14T23:17:23.918Z,21.10
2018-12-14T23:19:55.501Z,21.77
2018-12-14T23:22:23.454Z,24.07
2018-12-14T23:24:51.250Z,21.87
2018-12-14T23:27:19.295Z,26.40
2018-12-14T23:29:47.291Z,25.75
2018-12-14T23:32:14.941Z,28.60
2018-12-14T23:34:42.335Z,32.73
2018-12-14T23:37:13.860Z,28.35
2018-12-14T23:39:39.365Z,23.25
2018-12-14T23:42:06.786Z,31.35
2018-12-14T23:44:37.433Z,30.65
2018-12-14T23:47:06.554Z,25.00
2018-12-14T23:49:35.535Z,23.70
2018-12-14T23:52:03.366Z,29.63
2018-12-14T23:54:30.812Z,27.80
2018-12-14T23:56:58.295Z,22.13
2018-12-14T23:59:25.748Z,23.92
